Basra International Airport

ORMM · Basra, 伊拉克

罗盘
风向 的 风向 250° Basra International Airport 14/32
风: 5 kt, 2 beaufort

2 kt

5 kt
改变
0 ft 6.000 12.000 18.000 24.000 30.000
Cloud Cloud Cloud Cloud Cloud Cloud
BKN 23.000
METAR OKAS 301655Z 25005KT 9999 BKN230 36/11 A2978 RMK AO2A SLP079 T03560112 FZRANO $

METAR Basra International Airport - ORMM/BSR

Basra International Airport是,伊拉克中的中型机场。 该机场位于纬度30,54885和经度47,66240。 该机场有一条跑道: 14/32. 本场的ICAO机场代码为ORMM。 该机场的IATA代码为BSR。 机场在Kuwait FIR中。

该航空气象观测是针对Ali Al Salem Air Base在2023年5月30日 19:55, 当地时间进行的。

机场观察

风向为250°,速度为5 kt。

可见度为10 km 或者更多。

有碎云在23.000 ft的高度。 破损或更高的上限为23.000 ft。

温度和风寒是36 °C。 露点为11 °C,相对湿度为22%。 海平面上的气压为1008 hPa (QNH)。

白天

今天,太阳从04:48升起,在18:45降落。 这适用于Basra International Airport,世界夏令时可能有所不同。 当地时间与世界标准时间之间的时差为+3 小时。 夏令时目前正在进行中。

公司介绍

本场上唯一已知的公司是Iraqi Airways。

体会

到Vliegles.nl去找飞行课程,跳伞和其他飞行体验。 浏览页面,了解Basra International Airport附近所有可用的活动。 你也可以使用搜索功能来寻找你所在地附近的特定飞行课程、跳伞或其他飞行体验。

跑道

Id 标题 侧风 逆风 侧风 %
14/32 138°-318° 5 kt 2 kt 93 %

逆风成分最大的方向会被突出显示,并用于横风计算。 这并不一定意味着这个方向在使用。

乌云

23.000 ft BKN 碎云

温度 & 天气

温度 35,6 °C
露点 11,2 °C
相对湿度 22%
Kp-index 1 (0-9)

评论

AO2A自动气象站,可确定降水类型. 测量值由人员检查。
SLP079海平面压力为1007,9 hPa (29,76 inHg)
T03560112温度为35,6 °C (96,1 °F),露点为11,2 °C (52,2 °F)
$该气象站需要维护
FZRANO

白天

日出
04:51 (7:54)
中午
11:47
日落
18:43

小工具

你想在你的网站上有一个关于Basra International Airport的当前航空天气(METAR)的小部件吗?

显示HTML代码

我们和第三方通过cookies跟踪您在我们网站上的互联网行为。如果你继续,我们认为你同意我们的饼干政策